createdAt,value
2023-10-07T00:02:50.464Z,11.00
2023-10-07T00:08:01.909Z,9.30
2023-10-07T00:13:10.718Z,8.70
2023-10-07T00:18:25.647Z,11.20
2023-10-07T00:23:29.616Z,10.80
2023-10-07T00:28:34.728Z,11.60
2023-10-07T00:33:56.186Z,14.40
2023-10-07T00:39:00.623Z,11.30
2023-10-07T00:44:38.934Z,10.40
2023-10-07T00:49:49.678Z,10.10
2023-10-07T00:55:10.554Z,11.20
2023-10-07T01:00:40.040Z,10.50
2023-10-07T01:06:02.046Z,8.10
2023-10-07T01:11:17.359Z,9.20
2023-10-07T01:16:40.971Z,11.40
2023-10-07T01:21:56.713Z,7.90
2023-10-07T01:27:03.973Z,10.30
2023-10-07T01:32:13.850Z,7.60
2023-10-07T01:37:27.092Z,9.20
2023-10-07T01:42:39.293Z,8.10
2023-10-07T01:47:42.174Z,9.50
2023-10-07T01:52:50.494Z,10.70
2023-10-07T01:57:53.853Z,7.70
2023-10-07T02:03:03.109Z,9.00
2023-10-07T02:08:06.383Z,7.70
2023-10-07T02:13:16.294Z,7.40
2023-10-07T02:18:20.579Z,8.20
2023-10-07T02:23:38.334Z,7.60
2023-10-07T02:28:43.507Z,10.70
2023-10-07T02:33:54.540Z,8.80
2023-10-07T02:39:25.678Z,8.00
2023-10-07T02:44:29.355Z,11.70
2023-10-07T02:49:32.368Z,9.30
2023-10-07T02:54:35.623Z,8.50
2023-10-07T02:59:52.165Z,8.80
2023-10-07T03:05:18.104Z,10.10
2023-10-07T03:10:34.589Z,10.70
2023-10-07T03:15:42.635Z,8.10
2023-10-07T03:20:48.696Z,11.80
2023-10-07T03:25:54.359Z,8.70
2023-10-07T03:31:05.009Z,10.00
2023-10-07T03:36:08.168Z,8.20
2023-10-07T03:41:12.864Z,6.70
2023-10-07T03:46:18.472Z,10.30
2023-10-07T03:51:23.455Z,8.20
2023-10-07T03:56:26.138Z,8.50
2023-10-07T04:01:28.866Z,8.70
2023-10-07T04:06:31.725Z,6.90
2023-10-07T04:11:39.765Z,7.70
2023-10-07T04:16:43.741Z,7.30
2023-10-07T04:21:52.110Z,8.70
2023-10-07T04:27:11.752Z,9.20
2023-10-07T04:32:22.197Z,7.20
2023-10-07T04:37:39.948Z,7.40
2023-10-07T04:43:02.916Z,8.30
2023-10-07T04:48:28.537Z,7.80
2023-10-07T04:53:42.256Z,6.10
2023-10-07T04:58:45.809Z,6.50
2023-10-07T05:03:53.783Z,5.90
2023-10-07T05:08:56.535Z,6.70
2023-10-07T05:13:59.240Z,7.10
2023-10-07T05:19:03.400Z,8.00
2023-10-07T05:24:11.270Z,8.10
2023-10-07T05:29:17.510Z,8.20
2023-10-07T05:34:20.487Z,5.70
2023-10-07T05:39:25.970Z,9.90
2023-10-07T05:44:29.916Z,7.20
2023-10-07T05:49:34.500Z,6.30
2023-10-07T05:54:42.223Z,6.70
2023-10-07T05:59:44.977Z,7.20
2023-10-07T06:04:48.403Z,7.60
2023-10-07T06:09:53.232Z,8.50
2023-10-07T06:14:57.120Z,6.60
2023-10-07T06:20:00.383Z,8.80
2023-10-07T06:25:06.431Z,6.70
2023-10-07T06:30:12.752Z,6.70
2023-10-07T06:35:22.453Z,5.20
2023-10-07T06:40:32.357Z,5.00
2023-10-07T06:45:37.866Z,7.00
2023-10-07T06:50:46.136Z,5.80
2023-10-07T06:55:56.975Z,8.40
2023-10-07T07:01:11.836Z,8.60
2023-10-07T07:06:36.923Z,8.70
2023-10-07T07:11:40.805Z,8.40
2023-10-07T07:16:43.711Z,11.40
2023-10-07T07:21:49.949Z,9.60
2023-10-07T07:26:53.823Z,10.60
2023-10-07T07:31:56.717Z,9.30
2023-10-07T07:37:04.584Z,8.80
2023-10-07T07:42:17.116Z,11.50
2023-10-07T07:47:20.196Z,8.40
2023-10-07T07:52:26.626Z,6.40
2023-10-07T07:57:29.615Z,5.90
2023-10-07T08:02:37.383Z,9.90
2023-10-07T08:07:40.391Z,8.80
2023-10-07T08:12:43.772Z,10.20
2023-10-07T08:17:47.240Z,9.00
2023-10-07T08:22:54.635Z,10.50
2023-10-07T08:28:05.309Z,10.80
2023-10-07T08:33:09.471Z,9.50
2023-10-07T08:38:23.594Z,8.10
2023-10-07T08:43:46.427Z,9.50
2023-10-07T08:49:22.799Z,8.20
2023-10-07T08:54:33.771Z,13.70
2023-10-07T08:59:39.198Z,8.80
2023-10-07T09:04:42.031Z,9.90
2023-10-07T09:09:45.673Z,10.20
2023-10-07T09:14:58.575Z,8.10
2023-10-07T09:20:08.309Z,9.00
2023-10-07T09:25:19.299Z,8.20
2023-10-07T09:30:44.320Z,7.10
2023-10-07T09:36:10.457Z,9.50
2023-10-07T09:41:14.495Z,6.30
2023-10-07T09:46:37.349Z,7.60
2023-10-07T09:51:49.416Z,10.10
2023-10-07T09:57:26.071Z,10.70
2023-10-07T10:03:05.776Z,10.00
2023-10-07T10:08:37.165Z,7.50
2023-10-07T10:13:51.614Z,9.70
2023-10-07T10:19:23.586Z,6.10
2023-10-07T10:24:33.127Z,6.80
2023-10-07T10:30:21.566Z,10.30
2023-10-07T10:35:25.982Z,9.30
2023-10-07T10:40:33.202Z,8.10
2023-10-07T10:45:36.205Z,10.10
2023-10-07T10:50:41.795Z,9.90
2023-10-07T10:55:45.585Z,8.40
2023-10-07T11:00:56.745Z,8.40
2023-10-07T11:06:01.396Z,6.10
2023-10-07T11:11:11.716Z,8.00
2023-10-07T11:16:20.172Z,10.00
2023-10-07T11:21:27.971Z,8.20
2023-10-07T11:26:33.960Z,4.40
2023-10-07T11:31:40.740Z,5.40
2023-10-07T11:36:50.270Z,4.10
2023-10-07T11:41:56.382Z,4.50
2023-10-07T11:46:59.963Z,3.10
2023-10-07T11:52:05.872Z,4.30
2023-10-07T11:57:14.152Z,4.80
2023-10-07T12:02:17.630Z,5.40
2023-10-07T12:07:22.856Z,5.40
2023-10-07T12:12:28.608Z,5.30
2023-10-07T12:17:32.865Z,3.40
2023-10-07T12:22:38.589Z,4.30
2023-10-07T12:27:41.363Z,4.40
2023-10-07T12:32:45.523Z,2.10
2023-10-07T12:37:53.624Z,3.70
2023-10-07T12:42:58.197Z,3.80
2023-10-07T12:48:04.956Z,2.90
2023-10-07T12:53:14.257Z,6.10
2023-10-07T12:58:21.347Z,3.60
2023-10-07T13:03:24.428Z,5.30
2023-10-07T13:08:28.635Z,4.10
2023-10-07T13:13:35.673Z,3.90
2023-10-07T13:18:40.815Z,3.20
2023-10-07T13:23:47.031Z,3.80
2023-10-07T13:28:50.565Z,2.70
2023-10-07T13:34:00.377Z,4.50
2023-10-07T13:39:05.073Z,3.70
2023-10-07T13:44:11.834Z,2.80
2023-10-07T13:49:17.568Z,2.60
2023-10-07T13:54:23.980Z,2.60
2023-10-07T13:59:27.050Z,2.90
2023-10-07T14:04:33.856Z,2.80
2023-10-07T14:09:39.516Z,3.10
2023-10-07T14:14:42.572Z,2.60
2023-10-07T14:19:47.819Z,4.60
2023-10-07T14:24:50.660Z,4.10
2023-10-07T14:29:55.860Z,5.30
2023-10-07T14:34:59.028Z,4.80
2023-10-07T14:40:11.608Z,5.40
2023-10-07T14:45:14.678Z,7.10
2023-10-07T14:50:19.420Z,4.70
2023-10-07T14:55:25.036Z,4.50
2023-10-07T15:00:29.841Z,6.70
2023-10-07T15:05:37.336Z,6.00
2023-10-07T15:10:47.080Z,5.60
2023-10-07T15:15:53.296Z,4.60
2023-10-07T15:21:08.702Z,3.80
2023-10-07T15:26:18.404Z,3.20
2023-10-07T15:31:29.160Z,5.80
2023-10-07T15:36:42.073Z,5.80
2023-10-07T15:41:45.206Z,7.70
2023-10-07T15:46:51.489Z,7.50
2023-10-07T15:51:55.690Z,6.00
2023-10-07T15:56:58.417Z,7.70
2023-10-07T16:02:07.061Z,5.80
2023-10-07T16:07:10.266Z,5.10
2023-10-07T16:12:15.600Z,4.90
2023-10-07T16:17:21.268Z,5.60
2023-10-07T16:22:24.435Z,5.60
2023-10-07T16:27:28.692Z,5.60
2023-10-07T16:32:32.087Z,6.10
2023-10-07T16:37:40.906Z,6.00
2023-10-07T16:42:44.679Z,7.90
2023-10-07T16:47:53.160Z,4.00
2023-10-07T16:52:57.494Z,4.80
2023-10-07T16:58:00.393Z,5.60
2023-10-07T17:03:06.090Z,3.90
2023-10-07T17:08:11.773Z,5.40
2023-10-07T17:13:14.979Z,7.80
2023-10-07T17:18:19.232Z,5.40
2023-10-07T17:23:25.252Z,6.30
2023-10-07T17:28:31.839Z,4.20
2023-10-07T17:33:36.745Z,4.60
2023-10-07T17:38:39.887Z,4.50
2023-10-07T17:43:42.803Z,8.40
2023-10-07T17:48:46.377Z,6.30
2023-10-07T17:53:51.626Z,4.80
2023-10-07T17:58:59.616Z,7.20
2023-10-07T18:04:06.335Z,6.80
2023-10-07T18:09:12.083Z,3.90
2023-10-07T18:14:16.090Z,5.00
2023-10-07T18:19:19.835Z,3.70
2023-10-07T18:24:22.822Z,4.70
2023-10-07T18:29:27.210Z,3.70
2023-10-07T18:34:30.031Z,4.20
2023-10-07T18:39:34.922Z,7.20
2023-10-07T18:44:38.965Z,5.00
2023-10-07T18:49:42.776Z,4.90
2023-10-07T18:54:47.485Z,4.00
2023-10-07T19:00:02.155Z,5.50
2023-10-07T19:05:15.495Z,3.60
2023-10-07T19:10:19.206Z,4.00
2023-10-07T19:15:24.338Z,3.60
2023-10-07T19:20:28.218Z,5.40
2023-10-07T19:25:35.950Z,4.40
2023-10-07T19:30:44.644Z,4.30
2023-10-07T19:35:53.790Z,4.50
2023-10-07T19:40:58.129Z,4.80
2023-10-07T19:46:03.806Z,5.10
2023-10-07T19:51:09.512Z,4.80
2023-10-07T19:56:12.399Z,5.30
2023-10-07T20:01:21.329Z,5.50
2023-10-07T20:06:26.226Z,5.10
2023-10-07T20:11:31.788Z,4.30
2023-10-07T20:16:38.319Z,4.20
2023-10-07T20:21:41.794Z,4.10
2023-10-07T20:26:46.924Z,5.00
2023-10-07T20:31:50.013Z,4.20
2023-10-07T20:36:52.850Z,5.70
2023-10-07T20:41:56.000Z,4.60
2023-10-07T20:46:58.770Z,5.00
2023-10-07T20:52:06.144Z,4.60
2023-10-07T20:57:09.722Z,3.50
2023-10-07T21:02:20.391Z,3.30
2023-10-07T21:07:26.644Z,4.00
2023-10-07T21:12:30.568Z,3.90
2023-10-07T21:17:33.582Z,4.10
2023-10-07T21:22:38.895Z,5.80
2023-10-07T21:27:41.669Z,6.00
2023-10-07T21:32:46.237Z,4.00
2023-10-07T21:37:49.399Z,3.60
2023-10-07T21:42:52.465Z,4.40
2023-10-07T21:48:01.306Z,6.40
2023-10-07T21:53:06.261Z,3.80
2023-10-07T21:58:09.710Z,4.50
2023-10-07T22:03:17.856Z,6.10
2023-10-07T22:08:21.308Z,5.10
2023-10-07T22:13:28.045Z,4.80
2023-10-07T22:18:31.312Z,4.30
2023-10-07T22:23:35.534Z,4.70
2023-10-07T22:28:40.390Z,4.70
2023-10-07T22:33:46.641Z,4.80
2023-10-07T22:38:55.764Z,4.40
2023-10-07T22:44:08.516Z,4.70
2023-10-07T22:49:24.166Z,5.60
2023-10-07T22:54:47.607Z,4.30
2023-10-07T22:59:51.853Z,3.50
2023-10-07T23:04:58.279Z,3.80
2023-10-07T23:10:03.663Z,4.60
2023-10-07T23:15:15.932Z,4.30
2023-10-07T23:20:29.449Z,4.10
2023-10-07T23:25:39.687Z,5.00
2023-10-07T23:30:46.246Z,6.30
2023-10-07T23:35:56.206Z,5.30
2023-10-07T23:40:59.254Z,4.30
2023-10-07T23:46:14.751Z,4.90
2023-10-07T23:51:28.149Z,4.70
2023-10-07T23:56:36.023Z,4.20
